Terminal Aerodrome Forecast
Issued by NWS

Home | Current Version | Previous Version | Text Only | Print | Product List | Glossary On
Versions: 1 2 3 4 5 6 7 8 9 10 11 12 13 14
000
FTUS43 KIND 292325
TAFHUF
TAF
KHUF 292325Z 3000/3024 20006KT P6SM VCSH BKN050 BKN150
     FM300600 21002KT 5SM BR BKN045
     FM301300 23005KT P6SM BKN040=

USA.gov is the U.S. government's official web portal to all federal, state and local government web resources and services.